createdAt,value
2023-05-16T00:02:45.972Z,77.08
2023-05-16T00:07:48.934Z,77.44
2023-05-16T00:12:52.613Z,78.04
2023-05-16T00:17:58.576Z,78.87
2023-05-16T00:23:01.836Z,80.63
2023-05-16T00:28:04.844Z,80.76
2023-05-16T00:33:09.178Z,80.74
2023-05-16T00:38:12.682Z,80.92
2023-05-16T00:43:15.585Z,81.19
2023-05-16T00:48:20.485Z,81.62
2023-05-16T00:53:24.210Z,81.81
2023-05-16T00:58:27.571Z,81.90
2023-05-16T01:03:32.138Z,82.20
2023-05-16T01:08:35.836Z,82.13
2023-05-16T01:13:49.344Z,84.63
2023-05-16T01:19:03.905Z,83.61
2023-05-16T01:24:16.096Z,83.80
2023-05-16T01:29:20.675Z,83.36
2023-05-16T01:34:24.292Z,83.30
2023-05-16T01:39:34.699Z,84.02
2023-05-16T01:44:44.482Z,84.87
2023-05-16T01:49:58.275Z,85.50
2023-05-16T01:55:01.789Z,85.26
2023-05-16T02:00:07.610Z,85.43
2023-05-16T02:05:30.818Z,85.35
2023-05-16T02:10:34.003Z,86.01
2023-05-16T02:15:38.219Z,86.15
2023-05-16T02:20:41.257Z,86.80
2023-05-16T02:25:44.197Z,86.61
2023-05-16T02:30:57.584Z,87.09
2023-05-16T02:36:00.800Z,87.73
2023-05-16T02:41:03.719Z,87.15
2023-05-16T02:46:21.575Z,86.76
2023-05-16T02:51:26.068Z,86.50
2023-05-16T02:56:29.080Z,86.92
2023-05-16T03:01:33.467Z,86.59
2023-05-16T03:06:36.397Z,86.24
2023-05-16T03:11:39.359Z,86.85
2023-05-16T03:16:44.062Z,86.86
2023-05-16T03:21:47.081Z,87.63
2023-05-16T03:26:50.129Z,87.85
2023-05-16T03:31:57.639Z,87.58
2023-05-16T03:37:00.776Z,87.59
2023-05-16T03:42:03.626Z,87.47
2023-05-16T03:47:08.052Z,86.58
2023-05-16T03:52:11.257Z,86.65
2023-05-16T03:57:14.133Z,86.60
2023-05-16T04:02:19.001Z,86.39
2023-05-16T04:07:23.855Z,85.71
2023-05-16T04:12:27.056Z,85.38
2023-05-16T04:17:31.464Z,85.98
2023-05-16T04:22:34.581Z,84.74
2023-05-16T04:27:37.612Z,84.80
2023-05-16T04:32:41.987Z,85.37
2023-05-16T04:37:44.943Z,86.40
2023-05-16T04:42:47.835Z,84.31
2023-05-16T04:47:52.375Z,84.00
2023-05-16T04:52:56.572Z,84.50
2023-05-16T04:57:59.550Z,85.41
2023-05-16T05:03:04.532Z,86.19
2023-05-16T05:08:07.684Z,85.92
2023-05-16T05:13:10.572Z,85.59
2023-05-16T05:18:16.435Z,85.89
2023-05-16T05:23:20.794Z,85.12
2023-05-16T05:28:23.638Z,87.19
2023-05-16T05:33:29.538Z,87.01
2023-05-16T05:38:32.737Z,87.50
2023-05-16T05:43:35.645Z,86.34
2023-05-16T05:48:39.988Z,87.27
2023-05-16T05:53:42.952Z,88.06
2023-05-16T05:58:46.137Z,87.09
2023-05-16T06:03:50.525Z,87.51
2023-05-16T06:08:53.420Z,90.97
2023-05-16T06:13:57.557Z,87.58
2023-05-16T06:19:01.878Z,90.14
2023-05-16T06:24:05.056Z,88.86
2023-05-16T06:29:08.031Z,87.50
2023-05-16T06:34:12.492Z,91.24
2023-05-16T06:39:15.361Z,91.09
2023-05-16T06:44:18.438Z,90.39
2023-05-16T06:49:22.736Z,92.87
2023-05-16T06:54:25.708Z,89.82
2023-05-16T06:59:28.640Z,90.66
2023-05-16T07:04:32.982Z,90.51
2023-05-16T07:09:35.954Z,88.87
2023-05-16T07:14:38.918Z,88.55
2023-05-16T07:19:43.251Z,87.55
2023-05-16T07:24:46.186Z,87.64
2023-05-16T07:29:49.194Z,88.06
2023-05-16T07:34:53.465Z,87.19
2023-05-16T07:39:56.408Z,85.74
2023-05-16T07:44:59.371Z,86.71
2023-05-16T07:50:03.946Z,87.47
2023-05-16T07:55:08.146Z,87.19
2023-05-16T08:00:12.782Z,88.15
2023-05-16T08:05:17.254Z,86.42
2023-05-16T08:10:20.223Z,86.77
2023-05-16T08:15:23.162Z,88.39
2023-05-16T08:20:27.843Z,88.27
2023-05-16T08:25:31.381Z,88.94
2023-05-16T08:30:34.363Z,87.70
2023-05-16T08:35:38.726Z,87.88
2023-05-16T08:40:45.376Z,86.49
2023-05-16T08:45:48.430Z,87.77
2023-05-16T08:50:53.359Z,87.99
2023-05-16T08:55:57.189Z,88.77
2023-05-16T09:01:02.786Z,88.42
2023-05-16T09:06:08.402Z,88.22
2023-05-16T09:11:11.663Z,87.52
2023-05-16T09:16:16.473Z,87.13
2023-05-16T09:21:21.000Z,87.46
2023-05-16T09:26:24.205Z,86.07
2023-05-16T09:31:31.904Z,86.20
2023-05-16T09:36:36.845Z,87.41
2023-05-16T09:41:40.126Z,89.14
2023-05-16T09:46:43.409Z,87.64
2023-05-16T09:51:48.145Z,85.84
2023-05-16T09:56:51.778Z,85.60
2023-05-16T10:01:55.528Z,84.67
2023-05-16T10:07:03.518Z,83.46
2023-05-16T10:12:09.817Z,86.38
2023-05-16T10:17:15.839Z,87.90
2023-05-16T10:22:22.028Z,86.85
2023-05-16T10:27:26.090Z,85.65
2023-05-16T10:32:29.714Z,84.65
2023-05-16T10:37:35.671Z,84.20
2023-05-16T10:42:38.658Z,84.96
2023-05-16T10:47:41.644Z,85.04
2023-05-16T10:52:45.970Z,88.06
2023-05-16T10:57:48.982Z,90.90
2023-05-16T11:02:52.055Z,91.67
2023-05-16T11:08:06.670Z,89.83
2023-05-16T11:13:09.748Z,87.67
2023-05-16T11:18:16.306Z,84.49
2023-05-16T11:23:22.963Z,84.83
2023-05-16T11:28:27.767Z,84.74
2023-05-16T11:33:35.557Z,80.12
2023-05-16T11:38:43.420Z,80.66
2023-05-16T11:43:46.830Z,81.37
2023-05-16T11:48:49.976Z,80.84
2023-05-16T11:53:54.702Z,81.12
2023-05-16T11:58:59.419Z,81.64
2023-05-16T12:04:02.974Z,80.46
2023-05-16T12:09:10.668Z,79.49
2023-05-16T12:14:14.915Z,79.63
2023-05-16T12:19:18.138Z,79.37
2023-05-16T12:24:22.752Z,79.77
2023-05-16T12:30:20.377Z,78.97
2023-05-16T12:36:18.707Z,78.44
2023-05-16T12:41:42.361Z,78.08
2023-05-16T12:46:46.726Z,81.90
2023-05-16T12:52:18.862Z,83.33
2023-05-16T12:57:59.068Z,82.33
2023-05-16T13:03:03.619Z,79.82
2023-05-16T13:08:11.252Z,79.08
2023-05-16T13:13:25.101Z,77.92
2023-05-16T13:18:39.699Z,80.27
2023-05-16T13:23:42.682Z,79.52
2023-05-16T13:28:45.652Z,78.06
2023-05-16T13:33:49.951Z,79.67
2023-05-16T13:38:53.006Z,81.40
2023-05-16T13:43:55.976Z,81.66
2023-05-16T13:49:01.829Z,81.40
2023-05-16T13:54:04.994Z,80.29
2023-05-16T13:59:09.616Z,79.39
2023-05-16T14:04:15.757Z,78.89
2023-05-16T14:09:18.943Z,76.81
2023-05-16T14:14:21.880Z,76.46
2023-05-16T14:19:26.318Z,79.20
2023-05-16T14:24:29.408Z,81.03
2023-05-16T14:29:32.403Z,79.61
2023-05-16T14:34:36.703Z,79.94
2023-05-16T14:39:39.733Z,82.71
2023-05-16T14:44:42.686Z,82.60
2023-05-16T14:49:47.173Z,82.49
2023-05-16T14:54:50.145Z,81.21
2023-05-16T14:59:53.113Z,83.05
2023-05-16T15:04:57.546Z,81.27
2023-05-16T15:10:00.528Z,79.77
2023-05-16T15:15:04.162Z,78.66
2023-05-16T15:20:10.624Z,79.26
2023-05-16T15:25:13.635Z,78.59
2023-05-16T15:30:16.726Z,77.21
2023-05-16T15:35:21.052Z,79.33
2023-05-16T15:40:27.220Z,78.19
2023-05-16T15:45:30.955Z,76.40
2023-05-16T15:50:35.412Z,78.07
2023-05-16T15:55:38.529Z,75.75
2023-05-16T16:00:42.748Z,76.18
2023-05-16T16:05:48.082Z,77.63
2023-05-16T16:10:51.574Z,76.19
2023-05-16T16:15:54.817Z,74.39
2023-05-16T16:20:59.202Z,72.71
2023-05-16T16:26:02.114Z,72.48
2023-05-16T16:31:05.323Z,70.90
2023-05-16T16:36:10.786Z,69.11
2023-05-16T16:41:14.411Z,70.13
2023-05-16T16:46:17.397Z,71.89
2023-05-16T16:51:22.292Z,69.79
2023-05-16T16:56:26.487Z,70.11
2023-05-16T17:01:31.930Z,67.99
2023-05-16T17:06:36.814Z,68.26
2023-05-16T17:11:40.585Z,68.75
2023-05-16T17:16:43.540Z,67.56
2023-05-16T17:21:47.942Z,67.00
2023-05-16T17:26:51.113Z,67.67
2023-05-16T17:31:54.182Z,68.32
2023-05-16T17:36:58.554Z,68.30
2023-05-16T17:42:01.872Z,68.22
2023-05-16T17:47:05.076Z,68.62
2023-05-16T17:52:09.496Z,67.27
2023-05-16T17:57:13.015Z,69.07
2023-05-16T18:02:16.404Z,69.58
2023-05-16T18:07:20.679Z,70.13
2023-05-16T18:12:23.734Z,69.76
2023-05-16T18:17:27.323Z,69.12
2023-05-16T18:22:31.709Z,69.27
2023-05-16T18:27:35.550Z,69.49
2023-05-16T18:32:38.638Z,69.15
2023-05-16T18:37:44.347Z,69.82
2023-05-16T18:42:47.612Z,68.96
2023-05-16T18:47:51.106Z,67.47
2023-05-16T18:52:57.555Z,67.22
2023-05-16T18:58:00.670Z,66.80
2023-05-16T19:03:03.653Z,66.31
2023-05-16T19:08:08.324Z,63.77
2023-05-16T19:13:11.290Z,66.40
2023-05-16T19:18:14.380Z,67.92
2023-05-16T19:23:18.761Z,68.43
2023-05-16T19:28:21.726Z,67.56
2023-05-16T19:33:24.815Z,67.12
2023-05-16T19:38:29.155Z,68.50
2023-05-16T19:43:32.227Z,69.24
2023-05-16T19:48:35.490Z,71.86
2023-05-16T19:53:40.060Z,72.34
2023-05-16T19:58:43.920Z,72.71
2023-05-16T20:03:46.933Z,74.16
2023-05-16T20:08:51.266Z,74.74
2023-05-16T20:13:55.731Z,75.48
2023-05-16T20:18:59.154Z,77.31
2023-05-16T20:24:03.518Z,78.73
2023-05-16T20:29:06.450Z,78.30
2023-05-16T20:34:09.419Z,77.13
2023-05-16T20:39:13.707Z,75.83
2023-05-16T20:44:16.596Z,76.44
2023-05-16T20:49:19.513Z,77.42
2023-05-16T20:54:23.872Z,76.72
2023-05-16T20:59:26.901Z,74.80
2023-05-16T21:04:29.876Z,70.70
2023-05-16T21:09:36.764Z,68.39
2023-05-16T21:14:39.980Z,66.06
2023-05-16T21:19:42.950Z,65.47
2023-05-16T21:24:47.279Z,66.32
2023-05-16T21:29:50.201Z,65.39
2023-05-16T21:34:53.172Z,65.54
2023-05-16T21:39:57.478Z,64.04
2023-05-16T21:45:00.439Z,64.20
2023-05-16T21:50:03.457Z,63.29
2023-05-16T21:55:08.488Z,63.56
2023-05-16T22:00:12.638Z,64.29
2023-05-16T22:05:19.046Z,64.55
2023-05-16T22:10:23.367Z,64.07
2023-05-16T22:15:26.886Z,64.11
2023-05-16T22:20:30.040Z,63.88
2023-05-16T22:25:34.435Z,64.62
2023-05-16T22:30:37.372Z,64.27
2023-05-16T22:35:40.289Z,65.34
2023-05-16T22:40:44.618Z,64.08
2023-05-16T22:45:47.547Z,64.61
2023-05-16T22:50:50.598Z,65.03
2023-05-16T22:55:54.940Z,66.09
2023-05-16T23:00:58.303Z,65.60
2023-05-16T23:06:01.204Z,66.57
2023-05-16T23:11:05.553Z,66.05
2023-05-16T23:16:08.661Z,67.09
2023-05-16T23:21:11.583Z,67.53
2023-05-16T23:26:15.931Z,67.91
2023-05-16T23:31:18.843Z,69.14
2023-05-16T23:36:21.821Z,70.80
2023-05-16T23:41:26.110Z,71.64
2023-05-16T23:46:29.248Z,72.93
2023-05-16T23:51:44.911Z,73.02
2023-05-16T23:56:56.412Z,74.00
